Domremy, Canada
Current Conditions -  °F | °C
As of 8:00 PM on Saturday 25 Oct 2014 (Local Time) from CYPA Reporting Station
Broken Clouds Broken Clouds  
Wind Chill: 23°   Ceiling: 25000
Heat Index: 30°   Visibility: 15mi
Dew Point: 27°   Wind: 7mph
Humidity: 86%   Direction: 60°ENE
Pressure: 29.89"   Gusts: NA
Location:  52.78°N, 105.73°W
Report Text: CYPA 260200Z 06006KT 15SM BKN250 M01/M03 A2989 RMK CI6 SLP146
Loading
Personal Weather Stations






























Interactive Weather Map
Tropical Storm Tracking
New forecast layout! Learn more

10-Day Weather Forecast

Advertisements
Track Severe Weather on mobile